Aledo, IL

6:30 PM CDT on August 29, 2016 (GMT -0500)
KILALEDO2 | | Change Station
Active Advisory: Flood Watch

Elev 735 ft 41.20 °N, 90.76 °W | Updated 0 second ago

Scattered Clouds
Scattered Clouds
79.5 °F
Feels Like 83 °F
N
0.0
Wind Variable Wind from North
Gusts 1.6 mph

Today
High -- | Low -- °F
--% Chance of Precip.
Yesterday
High -- | Low -- °F
Precip. -- in
Pressure 30.15 in
Visibility 10.0 miles
Clouds Scattered Clouds 11000 ft
Heat Index 83 °F
Dew Point 71 °F
Humidity 75%
Rainfall 0.05 in
Snow Depth Not available.
6:27 AM 7:39 PM
Waning Crescent, 6% visible
METAR KMLI 292252Z 05005KT 10SM SCT110 27/22 A3016 RMK AO2 SLP208 T02720222
Pressure 30.15 in
Visibility 10.0 miles
Clouds Scattered Clouds 11000 ft
Heat Index 83 °F
Dew Point 71 °F
Humidity 75%
Rainfall 0.05 in
Snow Depth Not available.
6:27 AM 7:39 PM
Waning Crescent, 6% visible
METAR KMLI 292252Z 05005KT 10SM SCT110 27/22 A3016 RMK AO2 SLP208 T02720222

10-Day Weather Forecast

Almanac

Astronomy

Aug. 29, 2016 Rise Set
Actual Time
Civil Twilight
Nautical Twilight
Astronomical Twilight
Moon
Length of Visible Light
Length of Day
Tomorrow will be .
, % of the Moon is Illuminated

Today's Extremes

State Highs State Lows

Community

WunderPhotos

Upload Photos

1,935,695 photos uploaded!

WunderBlog® & News

Nearby

Air Quality

  Air Quality AQ Index Pollutant
Not available.

Snow Depth

Station Depth Elevation

Earthquake Activity

City Distance Mag. Time & Date
Minimum magnitude displayed is 2.5.

Coastal Water Temperatures

Place Temperature

Stations

Nearby Weather Stations

Station Location Temp. Windchill Dew Point Humidity Wind Precip. Elev Updated Type
                   

Watches & Warnings

Flood Watch
Issued: 10:48 AM CDT Aug. 29, 2016 – National Weather Service

The Flood Watch continues for
the Mississippi River at Keithsburg
* until Friday.
* At 10:30 am Monday the stage was 12.9 feet.
* Flood stage is 14.0 feet.
* Minor flooding is possible.
* Forecast... rise above flood stage Wednesday morning... and continue
rising to 14.3 feet Thursday morning. Fall below flood stage
Friday.
* This is based on moderate confidence in the river reaching flood
stage. Forecasts may change so monitor for updated information.


Lat... Lon 4116 9097 4117 9106 4094 9099 4091 9094
      4108 9091




954 am CDT Mon Aug 29 2016

The National Weather Service in Quad Cities has issued a
* Flood Watch for
the Mississippi River at New Boston ld17
* until Thursday.
* At 8:00 am Monday the stage was 13.5 feet.
* Flood stage is 15.0 feet.
* Minor flooding is possible.
* Forecast... rise to flood stage Wednesday.
* This is based on forecast rainfall, consequently there is limited
confidence in the river reaching flood stage. Forecasts may change
so monitor for updated information.



Lat... Lon 4124 9108 4124 9114 4119 9111 4117 9106
      4116 9097